createdAt,value
2023-05-12T00:00:48.112Z,42807.28
2023-05-12T00:03:14.765Z,42757.38
2023-05-12T00:05:41.600Z,42781.34
2023-05-12T00:08:08.013Z,42787.31
2023-05-12T00:10:35.605Z,42777.34
2023-05-12T00:13:02.599Z,42797.31
2023-05-12T00:15:29.079Z,42813.28
2023-05-12T00:17:55.497Z,42793.31
2023-05-12T00:20:22.181Z,42797.31
2023-05-12T00:22:48.711Z,42787.31
2023-05-12T00:25:15.232Z,42797.31
2023-05-12T00:27:41.611Z,42791.31
2023-05-12T00:30:08.820Z,42797.31
2023-05-12T00:32:35.732Z,42799.31
2023-05-12T00:35:02.217Z,42809.28
2023-05-12T00:37:28.698Z,42801.31
2023-05-12T00:39:55.350Z,42789.31
2023-05-12T00:42:21.777Z,42793.31
2023-05-12T00:44:48.187Z,42803.28
2023-05-12T00:47:14.794Z,42815.28
2023-05-12T00:49:44.424Z,42805.28
2023-05-12T00:52:10.829Z,42791.31
2023-05-12T00:54:39.805Z,42797.31
2023-05-12T00:57:06.475Z,42807.28
2023-05-12T00:59:33.352Z,42797.31
2023-05-12T01:02:00.214Z,42793.31
2023-05-12T01:04:27.044Z,42783.34
2023-05-12T01:07:05.500Z,42811.28
2023-05-12T01:09:32.312Z,42791.31
2023-05-12T01:11:59.388Z,42795.31
2023-05-12T01:14:25.900Z,42797.31
2023-05-12T01:16:56.021Z,42797.31
2023-05-12T01:19:38.407Z,42783.34
2023-05-12T01:22:06.056Z,42799.31
2023-05-12T01:24:36.375Z,42797.31
2023-05-12T01:27:03.529Z,42817.28
2023-05-12T01:29:30.484Z,42817.28
2023-05-12T01:31:57.216Z,42809.28
2023-05-12T01:34:23.902Z,42803.28
2023-05-12T01:36:51.238Z,42801.31
2023-05-12T01:39:18.160Z,42809.28
2023-05-12T01:41:45.119Z,42789.31
2023-05-12T01:44:11.523Z,42813.28
2023-05-12T01:46:39.025Z,42789.31
2023-05-12T01:49:05.774Z,42803.28
2023-05-12T01:51:32.255Z,42809.28
2023-05-12T01:53:59.239Z,42803.28
2023-05-12T01:56:29.405Z,42791.31
2023-05-12T01:58:56.163Z,42793.31
2023-05-12T02:01:25.430Z,42791.31
2023-05-12T02:03:52.053Z,42789.31
2023-05-12T02:06:18.503Z,42777.34
2023-05-12T02:08:45.131Z,42785.31
2023-05-12T02:11:11.583Z,42777.34
2023-05-12T02:13:38.325Z,42789.31
2023-05-12T02:16:05.740Z,42785.31
2023-05-12T02:18:32.319Z,42773.34
2023-05-12T02:20:59.177Z,42781.34
2023-05-12T02:23:25.579Z,42793.31
2023-05-12T02:25:52.629Z,42777.34
2023-05-12T02:28:19.030Z,42753.38
2023-05-12T02:30:48.621Z,42747.38
2023-05-12T02:33:20.482Z,42749.38
2023-05-12T02:35:47.694Z,42747.38
2023-05-12T02:38:14.574Z,42753.38
2023-05-12T02:40:41.123Z,42749.38
2023-05-12T02:43:07.630Z,42723.44
2023-05-12T02:45:34.859Z,42733.41
2023-05-12T02:48:01.530Z,42745.38
2023-05-12T02:50:28.454Z,42741.41
2023-05-12T02:52:54.950Z,42741.41
2023-05-12T02:55:21.548Z,42727.41
2023-05-12T02:57:47.961Z,42725.41
2023-05-12T03:00:14.957Z,42749.38
2023-05-12T03:02:41.980Z,42737.41
2023-05-12T03:05:09.202Z,42725.41
2023-05-12T03:07:36.178Z,42713.44
2023-05-12T03:10:02.936Z,42751.38
2023-05-12T03:12:30.900Z,42761.38
2023-05-12T03:14:58.074Z,42739.41
2023-05-12T03:17:26.296Z,42733.41
2023-05-12T03:19:52.884Z,42733.41
2023-05-12T03:22:19.396Z,42737.41
2023-05-12T03:24:46.423Z,42745.38
2023-05-12T03:27:12.819Z,42741.41
2023-05-12T03:29:39.271Z,42741.41
2023-05-12T03:32:06.472Z,42773.34
2023-05-12T03:34:32.884Z,42761.38
2023-05-12T03:36:59.513Z,42785.31
2023-05-12T03:39:26.374Z,42797.31
2023-05-12T03:41:53.359Z,42785.31
2023-05-12T03:44:19.776Z,42799.31
2023-05-12T03:46:46.226Z,42773.34
2023-05-12T03:49:13.534Z,42789.31
2023-05-12T03:51:40.415Z,42785.31
2023-05-12T03:54:06.939Z,42783.34
2023-05-12T03:56:33.790Z,42791.31
2023-05-12T03:59:00.330Z,42789.31
2023-05-12T04:01:26.766Z,42797.31
2023-05-12T04:03:53.327Z,42797.31
2023-05-12T04:06:19.837Z,42801.31
2023-05-12T04:08:46.259Z,42785.31
2023-05-12T04:11:12.643Z,42817.28
2023-05-12T04:13:39.034Z,42805.28
2023-05-12T04:16:06.072Z,42797.31
2023-05-12T04:18:32.635Z,42825.25
2023-05-12T04:20:59.622Z,42821.28
2023-05-12T04:23:26.346Z,42789.31
2023-05-12T04:25:53.099Z,42831.25
2023-05-12T04:28:19.693Z,42805.28
2023-05-12T04:30:47.136Z,42821.28
2023-05-12T04:33:14.064Z,42823.25
2023-05-12T04:35:41.024Z,42807.28
2023-05-12T04:38:09.503Z,42801.31
2023-05-12T04:40:36.859Z,42823.25
2023-05-12T04:43:03.909Z,42825.25
2023-05-12T04:45:31.611Z,42829.25
2023-05-12T04:47:58.163Z,42809.28
2023-05-12T04:50:24.760Z,42833.25
2023-05-12T04:52:52.084Z,42815.28
2023-05-12T04:55:18.792Z,42841.25
2023-05-12T04:57:45.699Z,42821.28
2023-05-12T05:00:12.659Z,42833.25
2023-05-12T05:02:39.469Z,42845.22
2023-05-12T05:05:06.469Z,42837.25
2023-05-12T05:07:32.962Z,42841.25
2023-05-12T05:09:59.733Z,42857.22
2023-05-12T05:12:26.166Z,42845.22
2023-05-12T05:14:52.620Z,42841.25
2023-05-12T05:17:19.240Z,42859.22
2023-05-12T05:19:57.271Z,42837.25
2023-05-12T05:22:24.743Z,42863.19
2023-05-12T05:24:51.785Z,42861.22
2023-05-12T05:27:19.021Z,42883.19
2023-05-12T05:29:45.620Z,42869.19
2023-05-12T05:32:12.256Z,42873.19
2023-05-12T05:34:38.955Z,42889.16
2023-05-12T05:37:05.689Z,42885.16
2023-05-12T05:39:32.182Z,42869.19
2023-05-12T05:41:58.980Z,42877.19
2023-05-12T05:44:25.644Z,42901.16
2023-05-12T05:46:53.014Z,42907.13
2023-05-12T05:49:19.649Z,42891.16
2023-05-12T05:51:47.412Z,42885.16
2023-05-12T05:54:14.725Z,42887.16
2023-05-12T05:56:41.196Z,42893.16
2023-05-12T05:59:07.634Z,42893.16
2023-05-12T06:01:34.164Z,42899.16
2023-05-12T06:04:00.831Z,42895.16
2023-05-12T06:06:28.946Z,42891.16
2023-05-12T06:08:56.061Z,42893.16
2023-05-12T06:11:22.824Z,42893.16
2023-05-12T06:13:49.617Z,42897.16
2023-05-12T06:16:16.597Z,42897.16
2023-05-12T06:18:43.067Z,42909.13
2023-05-12T06:21:09.885Z,42917.13
2023-05-12T06:23:36.411Z,42913.13
2023-05-12T06:26:03.082Z,42897.16
2023-05-12T06:28:29.537Z,42887.16
2023-05-12T06:30:55.973Z,42907.13
2023-05-12T06:33:22.376Z,42905.13
2023-05-12T06:35:50.197Z,42911.13
2023-05-12T06:38:16.783Z,42913.13
2023-05-12T06:40:44.484Z,42907.13
2023-05-12T06:43:10.988Z,42901.16
2023-05-12T06:45:37.524Z,42891.16
2023-05-12T06:48:05.842Z,42903.16
2023-05-12T06:50:32.463Z,42917.13
2023-05-12T06:52:58.854Z,42917.13
2023-05-12T06:55:25.249Z,42885.16
2023-05-12T06:57:55.397Z,42893.16
2023-05-12T07:00:26.000Z,42883.19
2023-05-12T07:02:52.929Z,42897.16
2023-05-12T07:05:20.906Z,42879.19
2023-05-12T07:07:47.796Z,42887.16
2023-05-12T07:10:14.271Z,42857.22
2023-05-12T07:12:40.817Z,42873.19
2023-05-12T07:15:08.344Z,42869.19
2023-05-12T07:17:35.019Z,42857.22
2023-05-12T07:20:01.469Z,42853.22
2023-05-12T07:22:28.042Z,42869.19
2023-05-12T07:24:54.984Z,42875.19
2023-05-12T07:27:21.716Z,42875.19
2023-05-12T07:29:48.096Z,42847.22
2023-05-12T07:32:14.727Z,42871.19
2023-05-12T07:34:41.207Z,42865.19
2023-05-12T07:37:07.599Z,42853.22
2023-05-12T07:39:34.333Z,42857.22
2023-05-12T07:42:00.750Z,42853.22
2023-05-12T07:44:28.150Z,42831.25
2023-05-12T07:46:54.626Z,42837.25
2023-05-12T07:49:23.163Z,42825.25
2023-05-12T07:51:49.967Z,42849.22
2023-05-12T07:54:16.364Z,42861.22
2023-05-12T07:56:42.756Z,42841.25
2023-05-12T07:59:09.180Z,42805.28
2023-05-12T08:01:35.655Z,42815.28
2023-05-12T08:04:02.164Z,42817.28
2023-05-12T08:06:28.626Z,42831.25
2023-05-12T08:08:57.924Z,42817.28
2023-05-12T08:11:25.011Z,42813.28
2023-05-12T08:13:52.205Z,42817.28
2023-05-12T08:16:18.766Z,42815.28
2023-05-12T08:18:45.248Z,42819.28
2023-05-12T08:21:11.870Z,42797.31
2023-05-12T08:23:38.565Z,42797.31
2023-05-12T08:26:05.170Z,42785.31
2023-05-12T08:28:32.051Z,42809.28
2023-05-12T08:30:58.852Z,42799.31
2023-05-12T08:33:25.540Z,42797.31
2023-05-12T08:35:52.425Z,42817.28
2023-05-12T08:38:19.050Z,42813.28
2023-05-12T08:41:25.375Z,42807.28
2023-05-12T08:43:52.616Z,42805.28
2023-05-12T08:46:20.125Z,42817.28
2023-05-12T08:48:50.015Z,42793.31
2023-05-12T08:51:19.040Z,42785.31
2023-05-12T08:53:49.036Z,42771.34
2023-05-12T08:58:49.601Z,42777.34
2023-05-12T09:01:18.236Z,42753.38
2023-05-12T09:03:45.260Z,42769.34
2023-05-12T09:06:12.993Z,42769.34
2023-05-12T09:08:40.690Z,42793.31
2023-05-12T09:11:11.004Z,42763.34
2023-05-12T09:13:40.250Z,42729.41
2023-05-12T09:16:12.198Z,42765.34
2023-05-12T09:18:53.254Z,42769.34
2023-05-12T09:21:20.652Z,42769.34
2023-05-12T09:23:53.239Z,42777.34
2023-05-12T09:26:22.494Z,42769.34
2023-05-12T09:28:49.486Z,42769.34
2023-05-12T09:31:20.608Z,42761.38
2023-05-12T09:33:47.468Z,42745.38
2023-05-12T09:36:18.921Z,42779.34
2023-05-12T09:38:45.373Z,42731.41
2023-05-12T09:41:11.803Z,42741.41
2023-05-12T09:43:44.980Z,42737.41
2023-05-12T09:46:11.433Z,42737.41
2023-05-12T09:48:39.388Z,42705.44
2023-05-12T09:51:10.725Z,42685.47
2023-05-12T09:53:42.999Z,42685.47
2023-05-12T09:56:10.597Z,42681.50
2023-05-12T09:58:42.608Z,42661.53
2023-05-12T10:01:22.075Z,42673.50
2023-05-12T10:03:52.903Z,42641.56
2023-05-12T10:06:31.630Z,42649.53
2023-05-12T10:09:06.061Z,42665.50
2023-05-12T10:11:33.294Z,42669.50
2023-05-12T10:14:00.525Z,42651.53
2023-05-12T10:16:30.366Z,42639.56
2023-05-12T10:18:56.988Z,42653.53
2023-05-12T10:21:25.877Z,42641.56
2023-05-12T10:23:53.831Z,42633.56
2023-05-12T10:26:21.472Z,42637.56
2023-05-12T10:28:48.768Z,42621.59
2023-05-12T10:31:15.894Z,42611.59
2023-05-12T10:33:42.412Z,42617.59
2023-05-12T10:36:19.291Z,42613.59
2023-05-12T10:38:49.576Z,42589.63
2023-05-12T10:41:17.366Z,42585.66
2023-05-12T10:43:50.499Z,42579.66
2023-05-12T10:46:19.299Z,42537.72
2023-05-12T10:49:04.203Z,42557.69
2023-05-12T10:51:33.218Z,42541.72
2023-05-12T10:54:04.407Z,42563.69
2023-05-12T10:56:42.864Z,42555.69
2023-05-12T10:59:20.678Z,42557.69
2023-05-12T11:02:05.113Z,42567.69
2023-05-12T11:04:45.670Z,42577.66
2023-05-12T11:07:14.698Z,42567.69
2023-05-12T11:09:56.499Z,42573.66
2023-05-12T11:12:27.537Z,42529.75
2023-05-12T11:14:54.136Z,42513.75
2023-05-12T11:17:21.881Z,42539.72
2023-05-12T11:19:50.304Z,42553.69
2023-05-12T11:22:19.923Z,42581.66
2023-05-12T11:24:47.776Z,42569.66
2023-05-12T11:27:19.796Z,42557.69
2023-05-12T11:30:04.185Z,42513.75
2023-05-12T11:32:30.766Z,42525.75
2023-05-12T11:35:14.769Z,42573.66
2023-05-12T11:37:43.379Z,42559.69
2023-05-12T11:40:18.125Z,42543.72
2023-05-12T11:42:48.404Z,42525.75
2023-05-12T11:45:22.420Z,42535.72
2023-05-12T11:47:49.140Z,42525.75
2023-05-12T11:50:25.065Z,42563.69
2023-05-12T11:52:53.353Z,42545.72
2023-05-12T11:55:22.814Z,42531.72
2023-05-12T11:58:05.460Z,42513.75
2023-05-12T12:00:35.414Z,42503.78
2023-05-12T12:03:10.121Z,42469.84
2023-05-12T12:05:37.570Z,42407.94
2023-05-12T12:08:15.053Z,42378.00
2023-05-12T12:10:46.022Z,42348.03
2023-05-12T12:13:19.454Z,42312.09
2023-05-12T12:15:45.867Z,42286.16
2023-05-12T12:18:12.452Z,42294.13
2023-05-12T12:20:38.892Z,42262.19
2023-05-12T12:23:05.393Z,42256.19
2023-05-12T12:25:31.810Z,42250.22
2023-05-12T12:27:58.290Z,42254.19
2023-05-12T12:30:24.688Z,42222.25
2023-05-12T12:32:51.194Z,42198.31
2023-05-12T12:35:17.747Z,42178.34
2023-05-12T12:37:51.153Z,42170.34
2023-05-12T12:40:20.481Z,42170.34
2023-05-12T12:42:47.069Z,42146.41
2023-05-12T12:45:13.668Z,42138.41
2023-05-12T12:47:40.597Z,42130.41
2023-05-12T12:50:09.356Z,42138.41
2023-05-12T12:52:37.864Z,42114.44
2023-05-12T12:55:06.093Z,42090.50
2023-05-12T12:57:32.555Z,42104.47
2023-05-12T12:59:58.976Z,42094.47
2023-05-12T13:02:25.677Z,42098.47
2023-05-12T13:04:52.263Z,42086.50
2023-05-12T13:07:18.703Z,42090.50
2023-05-12T13:09:45.251Z,42048.56
2023-05-12T13:12:11.662Z,42056.56
2023-05-12T13:14:38.132Z,42030.59
2023-05-12T13:17:04.885Z,42022.63
2023-05-12T13:19:31.497Z,42014.63
2023-05-12T13:21:57.910Z,42008.63
2023-05-12T13:24:24.549Z,41998.66
2023-05-12T13:26:51.574Z,42032.59
2023-05-12T13:29:18.346Z,42038.59
2023-05-12T13:31:46.320Z,42030.59
2023-05-12T13:34:13.603Z,42026.59
2023-05-12T13:36:40.277Z,42030.59
2023-05-12T13:39:06.720Z,42038.59
2023-05-12T13:41:33.107Z,42008.63
2023-05-12T13:43:59.505Z,42014.63
2023-05-12T13:46:25.930Z,42012.63
2023-05-12T13:48:52.460Z,41996.66
2023-05-12T13:51:19.738Z,42010.63
2023-05-12T13:53:46.302Z,42000.66
2023-05-12T13:56:16.721Z,42004.66
2023-05-12T13:58:43.511Z,42008.63
2023-05-12T14:01:10.623Z,42010.63
2023-05-12T14:03:37.759Z,42022.63
2023-05-12T14:06:04.971Z,41990.66
2023-05-12T14:08:31.437Z,41984.69
2023-05-12T14:10:59.654Z,41970.72
2023-05-12T14:13:26.241Z,41996.66
2023-05-12T14:15:53.453Z,41970.72
2023-05-12T14:18:20.303Z,42014.63
2023-05-12T14:20:46.908Z,41978.69
2023-05-12T14:23:13.400Z,42042.56
2023-05-12T14:25:39.840Z,42014.63
2023-05-12T14:28:06.320Z,42006.66
2023-05-12T14:30:34.908Z,41998.66
2023-05-12T14:33:02.509Z,41984.69
2023-05-12T14:35:29.414Z,42008.63
2023-05-12T14:37:56.602Z,42008.63
2023-05-12T14:40:23.763Z,42030.59
2023-05-12T14:42:50.540Z,42038.59
2023-05-12T14:45:17.154Z,42030.59
2023-05-12T14:47:43.671Z,41994.66
2023-05-12T14:50:10.799Z,42022.63
2023-05-12T14:52:40.507Z,42014.63
2023-05-12T14:55:11.578Z,42034.59
2023-05-12T14:57:39.330Z,41994.66
2023-05-12T15:00:07.963Z,41986.69
2023-05-12T15:02:34.829Z,41958.72
2023-05-12T15:05:01.688Z,41960.72
2023-05-12T15:07:28.068Z,41880.88
2023-05-12T15:09:54.549Z,41828.97
2023-05-12T15:12:20.953Z,41813.00
2023-05-12T15:14:47.499Z,41799.03
2023-05-12T15:17:14.060Z,41761.09
2023-05-12T15:19:40.734Z,41771.06
2023-05-12T15:22:07.518Z,41791.03
2023-05-12T15:24:34.288Z,41767.09
2023-05-12T15:27:00.715Z,41737.13
2023-05-12T15:29:27.167Z,41739.13
2023-05-12T15:31:54.266Z,41719.16
2023-05-12T15:34:20.731Z,41703.19
2023-05-12T15:36:48.764Z,41687.22
2023-05-12T15:39:18.484Z,41691.22
2023-05-12T15:41:45.457Z,41707.19
2023-05-12T15:44:11.839Z,41723.16
2023-05-12T15:46:38.251Z,41747.13
2023-05-12T15:49:04.657Z,41805.00
2023-05-12T15:51:32.514Z,41801.03
2023-05-12T15:53:58.922Z,41817.00
2023-05-12T15:56:25.362Z,41842.94
2023-05-12T15:58:51.845Z,41846.94
2023-05-12T16:01:18.487Z,41858.91
2023-05-12T16:03:45.657Z,41874.88
2023-05-12T16:06:12.232Z,41872.88
2023-05-12T16:08:38.983Z,41866.91
2023-05-12T16:11:05.449Z,41846.94
2023-05-12T16:13:31.834Z,41826.97
2023-05-12T16:15:58.287Z,41789.03
2023-05-12T16:18:25.080Z,41767.09
2023-05-12T16:20:51.530Z,41773.06
2023-05-12T16:23:18.176Z,41811.00
2023-05-12T16:25:45.754Z,41824.97
2023-05-12T16:28:12.224Z,41815.00
2023-05-12T16:30:38.693Z,41824.97
2023-05-12T16:33:06.962Z,41795.03
2023-05-12T16:35:33.597Z,41818.97
2023-05-12T16:38:00.040Z,41789.03
2023-05-12T16:40:26.425Z,41759.09
2023-05-12T16:42:54.707Z,41779.06
2023-05-12T16:45:22.292Z,41779.06
2023-05-12T16:47:49.711Z,41779.06
2023-05-12T16:50:17.515Z,41741.13
2023-05-12T16:52:43.951Z,41729.16
2023-05-12T16:55:11.005Z,41741.13
2023-05-12T16:57:37.799Z,41735.16
2023-05-12T17:00:06.052Z,41703.19
2023-05-12T17:02:33.172Z,41705.19
2023-05-12T17:04:59.683Z,41703.19
2023-05-12T17:07:26.377Z,41655.28
2023-05-12T17:09:52.731Z,41679.25
2023-05-12T17:12:19.442Z,41705.19
2023-05-12T17:14:50.182Z,41683.25
2023-05-12T17:17:22.605Z,41727.16
2023-05-12T17:19:49.076Z,41777.06
2023-05-12T17:22:16.908Z,41791.03
2023-05-12T17:24:43.310Z,41783.06
2023-05-12T17:27:09.778Z,41811.00
2023-05-12T17:29:36.390Z,41785.06
2023-05-12T17:32:02.782Z,41797.03
2023-05-12T17:34:29.210Z,41807.00
2023-05-12T17:36:55.994Z,41826.97
2023-05-12T17:39:22.667Z,41840.94
2023-05-12T17:41:49.050Z,41842.94
2023-05-12T17:44:15.440Z,41842.94
2023-05-12T17:46:41.865Z,41836.94
2023-05-12T17:49:08.863Z,41846.94
2023-05-12T17:51:35.535Z,41832.97
2023-05-12T17:54:03.658Z,41838.94
2023-05-12T17:56:30.677Z,41809.00
2023-05-12T17:58:57.273Z,41830.97
2023-05-12T18:01:23.734Z,41807.00
2023-05-12T18:03:50.789Z,41783.06
2023-05-12T18:06:17.501Z,41739.13
2023-05-12T18:08:43.906Z,41777.06
2023-05-12T18:11:10.370Z,41729.16
2023-05-12T18:13:37.800Z,41727.16
2023-05-12T18:16:04.761Z,41731.16
2023-05-12T18:18:32.385Z,41733.16
2023-05-12T18:20:59.497Z,41737.13
2023-05-12T18:23:25.895Z,41727.16
2023-05-12T18:25:52.345Z,41723.16
2023-05-12T18:28:18.726Z,41721.16
2023-05-12T18:30:45.203Z,41691.22
2023-05-12T18:33:11.652Z,41707.19
2023-05-12T18:35:38.065Z,41711.19
2023-05-12T18:38:04.436Z,41711.19
2023-05-12T18:40:31.426Z,41727.16
2023-05-12T18:42:57.920Z,41733.16
2023-05-12T18:45:24.807Z,41719.16
2023-05-12T18:47:51.738Z,41717.19
2023-05-12T18:50:18.163Z,41709.19
2023-05-12T18:52:44.528Z,41713.19
2023-05-12T18:55:10.926Z,41729.16
2023-05-12T18:57:37.405Z,41719.16
2023-05-12T19:00:04.681Z,41727.16
2023-05-12T19:02:31.125Z,41719.16
2023-05-12T19:04:57.605Z,41707.19
2023-05-12T19:07:24.724Z,41703.19
2023-05-12T19:09:51.270Z,41713.19
2023-05-12T19:12:17.750Z,41699.22
2023-05-12T19:14:44.420Z,41723.16
2023-05-12T19:17:10.913Z,41707.19
2023-05-12T19:19:37.336Z,41703.19
2023-05-12T19:22:04.238Z,41723.16
2023-05-12T19:24:30.705Z,41719.16
2023-05-12T19:26:57.437Z,41737.13
2023-05-12T19:29:24.046Z,41739.13
2023-05-12T19:31:50.971Z,41751.13
2023-05-12T19:34:17.446Z,41751.13
2023-05-12T19:36:44.253Z,41751.13
2023-05-12T19:39:10.936Z,41769.06
2023-05-12T19:41:37.315Z,41751.13
2023-05-12T19:44:04.089Z,41747.13
2023-05-12T19:46:30.538Z,41773.06
2023-05-12T19:48:56.972Z,41791.03
2023-05-12T19:51:23.393Z,41763.09
2023-05-12T19:53:49.768Z,41769.06
2023-05-12T19:56:16.749Z,41783.06
2023-05-12T19:58:43.154Z,41783.06
2023-05-12T20:01:12.181Z,41803.00
2023-05-12T20:03:39.122Z,41797.03
2023-05-12T20:06:05.665Z,41789.03
2023-05-12T20:08:32.277Z,41818.97
2023-05-12T20:10:58.695Z,41797.03
2023-05-12T20:13:25.254Z,41820.97
2023-05-12T20:15:51.728Z,41783.06
2023-05-12T20:18:18.118Z,41815.00
2023-05-12T20:20:44.504Z,41822.97
2023-05-12T20:23:10.890Z,41815.00
2023-05-12T20:25:37.386Z,41832.97
2023-05-12T20:28:04.448Z,41799.03
2023-05-12T20:30:30.835Z,41807.00
2023-05-12T20:32:57.326Z,41799.03
2023-05-12T20:35:24.051Z,41803.00
2023-05-12T20:37:50.869Z,41815.00
2023-05-12T20:40:17.565Z,41815.00
2023-05-12T20:42:45.773Z,41777.06
2023-05-12T20:45:13.186Z,41779.06
2023-05-12T20:47:39.886Z,41791.03
2023-05-12T20:50:08.105Z,41785.06
2023-05-12T20:52:38.904Z,41791.03
2023-05-12T20:55:06.830Z,41801.03
2023-05-12T20:57:33.255Z,41815.00
2023-05-12T20:59:59.724Z,41820.97
2023-05-12T21:02:28.153Z,41787.03
2023-05-12T21:04:55.108Z,41783.06
2023-05-12T21:07:21.538Z,41815.00
2023-05-12T21:09:47.946Z,41805.00
2023-05-12T21:12:14.363Z,41822.97
2023-05-12T21:14:42.509Z,41807.00
2023-05-12T21:17:10.251Z,41793.03
2023-05-12T21:19:37.978Z,41813.00
2023-05-12T21:22:05.730Z,41811.00
2023-05-12T21:24:32.569Z,41799.03
2023-05-12T21:27:02.330Z,41799.03
2023-05-12T21:29:28.995Z,41807.00
2023-05-12T21:31:55.491Z,41809.00
2023-05-12T21:34:21.907Z,41826.97
2023-05-12T21:36:48.261Z,41838.94
2023-05-12T21:39:14.698Z,41838.94
2023-05-12T21:41:41.140Z,41822.97
2023-05-12T21:44:09.255Z,41803.00
2023-05-12T21:46:37.814Z,41832.97
2023-05-12T21:49:04.363Z,41840.94
2023-05-12T21:51:33.004Z,41854.91
2023-05-12T21:54:00.042Z,41822.97
2023-05-12T21:56:26.696Z,41850.94
2023-05-12T21:58:53.078Z,41844.94
2023-05-12T22:01:19.674Z,41840.94
2023-05-12T22:03:46.137Z,41848.94
2023-05-12T22:06:12.851Z,41872.88
2023-05-12T22:08:39.265Z,41874.88
2023-05-12T22:11:05.965Z,41854.91
2023-05-12T22:13:32.423Z,41876.88
2023-05-12T22:15:59.854Z,41886.84
2023-05-12T22:18:26.435Z,41866.91
2023-05-12T22:20:53.019Z,41894.84
2023-05-12T22:23:19.453Z,41894.84
2023-05-12T22:25:45.852Z,41884.88
2023-05-12T22:28:12.226Z,41898.84
2023-05-12T22:30:38.942Z,41892.84
2023-05-12T22:33:05.363Z,41898.84
2023-05-12T22:35:31.772Z,41880.88
2023-05-12T22:37:58.191Z,41886.84
2023-05-12T22:40:26.859Z,41906.81
2023-05-12T22:42:53.297Z,41898.84
2023-05-12T22:45:19.757Z,41896.84
2023-05-12T22:47:46.768Z,41906.81
2023-05-12T22:50:13.299Z,41912.81
2023-05-12T22:52:39.673Z,41900.84
2023-05-12T22:55:06.607Z,41904.81
2023-05-12T22:57:33.081Z,41892.84
2023-05-12T22:59:59.467Z,41874.88
2023-05-12T23:02:26.046Z,41914.81
2023-05-12T23:04:52.520Z,41902.84
2023-05-12T23:07:19.417Z,41914.81
2023-05-12T23:09:45.798Z,41926.78
2023-05-12T23:12:12.169Z,41932.78
2023-05-12T23:14:38.609Z,41922.78
2023-05-12T23:17:05.579Z,41932.78
2023-05-12T23:19:32.240Z,41934.78
2023-05-12T23:21:58.646Z,41958.72
2023-05-12T23:24:25.039Z,41994.66
2023-05-12T23:26:51.512Z,41966.72
2023-05-12T23:29:17.900Z,42018.63
2023-05-12T23:31:44.391Z,42010.63
2023-05-12T23:34:11.194Z,42032.59
2023-05-12T23:36:37.787Z,42050.56
2023-05-12T23:39:04.699Z,42068.53
2023-05-12T23:41:31.725Z,42094.47
2023-05-12T23:43:58.557Z,42110.47
2023-05-12T23:46:25.701Z,42100.47
2023-05-12T23:48:52.225Z,42090.50
2023-05-12T23:51:18.631Z,42114.44
2023-05-12T23:53:45.077Z,42106.47
2023-05-12T23:56:11.456Z,42134.41
2023-05-12T23:58:37.878Z,42174.34
